Time;durP1;ratioP1;P1;durP2;ratioP2;P2;SDS_P1;SDS_P2;PMS_P1;PMS_P2;Temp;Humidity;BMP_temperature;BMP_pressure;BME280_temperature;BME280_humidity;BME280_pressure;Samples;Min_cycle;Max_cycle;Signal;HPM_P1;HPM_P2
2024/04/18 00:01:41;;;;;;;18.77;5.73;;;6.70;99.90;;;;;;5459703;26;20209;-85
2024/04/18 00:04:06;;;;;;;20.90;5.73;;;6.60;99.90;;;;;;5459558;26;20218;-85
2024/04/18 00:06:32;;;;;;;17.37;5.40;;;6.60;99.90;;;;;;5459500;26;20205;-85
2024/04/18 00:08:58;;;;;;;18.60;5.70;;;6.50;99.90;;;;;;5458827;26;20262;-85
2024/04/18 00:11:23;;;;;;;18.40;5.90;;;6.60;99.90;;;;;;5427334;26;20244;-85
2024/04/18 00:13:49;;;;;;;18.50;4.90;;;6.60;99.90;;;;;;5459005;26;20214;-85
2024/04/18 00:16:15;;;;;;;20.87;5.47;;;6.60;99.90;;;;;;5427425;26;20225;-85
2024/04/18 00:18:40;;;;;;;20.37;5.67;;;6.60;99.90;;;;;;5459481;26;20251;-85
2024/04/18 00:21:06;;;;;;;20.50;6.03;;;6.50;99.90;;;;;;5427944;26;20694;-85
2024/04/18 00:23:32;;;;;;;22.50;5.73;;;6.60;99.90;;;;;;5426995;26;20225;-85
2024/04/18 00:25:57;;;;;;;18.10;5.90;;;6.70;99.90;;;;;;5459700;26;20338;-85
2024/04/18 00:28:23;;;;;;;18.60;5.33;;;6.70;99.90;;;;;;5427640;26;20678;-85
2024/04/18 00:30:48;;;;;;;19.80;5.73;;;6.70;99.90;;;;;;5458518;26;20708;-85
2024/04/18 00:33:14;;;;;;;19.90;5.70;;;6.70;99.90;;;;;;5459440;26;20683;-85
2024/04/18 00:35:40;;;;;;;18.60;6.03;;;6.70;99.90;;;;;;5458929;26;20202;-85
2024/04/18 00:38:05;;;;;;;19.77;5.60;;;6.60;99.90;;;;;;5459240;26;20298;-85
2024/04/18 00:40:31;;;;;;;20.43;6.47;;;6.60;99.90;;;;;;5458382;26;20563;-85
2024/04/18 00:42:59;;;;;;;20.27;5.80;;;6.60;99.90;;;;;;5459416;26;20214;-85
2024/04/18 00:45:26;;;;;;;19.38;5.85;;;6.70;99.90;;;;;;5427632;26;20214;-85
2024/04/18 00:47:52;;;;;;;20.77;7.25;;;6.70;99.90;;;;;;5458578;26;20205;-85
2024/04/18 00:50:19;;;;;;;19.23;5.93;;;6.60;99.90;;;;;;5426673;26;20225;-85
2024/04/18 00:52:46;;;;;;;20.33;5.72;;;6.60;99.90;;;;;;5458308;26;20210;-85
2024/04/18 00:55:13;;;;;;;19.50;6.60;;;6.60;99.90;;;;;;5457968;26;20244;-85
2024/04/18 00:57:40;;;;;;;19.95;6.60;;;6.60;99.90;;;;;;5458924;26;20237;-85
2024/04/18 01:00:06;;;;;;;19.83;6.70;;;6.60;99.90;;;;;;5458576;26;20292;-85
2024/04/18 01:02:32;;;;;;;20.92;6.35;;;6.60;99.90;;;;;;5458914;26;20201;-85
2024/04/18 01:04:58;;;;;;;19.02;6.05;;;6.60;99.90;;;;;;5426344;26;20297;-85
2024/04/18 01:07:24;;;;;;;19.87;7.23;;;6.50;99.90;;;;;;5458572;26;20213;-85
2024/04/18 01:09:50;;;;;;;21.58;6.80;;;6.50;99.90;;;;;;5458058;26;20427;-85
2024/04/18 01:12:16;;;;;;;22.77;6.83;;;6.50;99.90;;;;;;5458237;26;20248;-85
2024/04/18 01:14:42;;;;;;;19.83;7.57;;;6.60;99.90;;;;;;5457879;26;20451;-85
2024/04/18 01:17:07;;;;;;;20.60;7.10;;;6.50;99.90;;;;;;5458658;26;20247;-85
2024/04/18 01:19:34;;;;;;;21.53;7.33;;;6.50;99.90;;;;;;5457909;26;20206;-85
2024/04/18 01:22:00;;;;;;;22.10;7.80;;;6.50;99.90;;;;;;5425824;26;20620;-85
2024/04/18 01:24:26;;;;;;;22.35;7.82;;;6.60;99.90;;;;;;5425910;26;20225;-85
2024/04/18 01:26:52;;;;;;;25.00;7.13;;;6.50;99.90;;;;;;5458397;26;20248;-85
2024/04/18 01:29:17;;;;;;;19.73;6.80;;;6.50;99.90;;;;;;5426551;26;20215;-85
2024/04/18 01:31:43;;;;;;;22.23;6.47;;;6.50;99.90;;;;;;5457732;26;20566;-85
2024/04/18 01:34:09;;;;;;;21.50;6.90;;;6.50;99.90;;;;;;5457892;26;20317;-85
2024/04/18 01:36:34;;;;;;;21.70;7.67;;;6.50;99.90;;;;;;5426026;26;20214;-85
2024/04/18 01:39:00;;;;;;;22.87;8.63;;;6.50;99.90;;;;;;5425781;26;20213;-85
2024/04/18 01:41:26;;;;;;;24.73;7.80;;;6.50;99.90;;;;;;5457386;26;20283;-85
2024/04/18 01:43:52;;;;;;;24.30;9.10;;;6.50;99.90;;;;;;5457210;26;20550;-85
2024/04/18 01:46:17;;;;;;;21.83;7.47;;;6.40;99.90;;;;;;5425485;26;20214;-85
2024/04/18 01:48:46;;;;;;;25.90;8.60;;;6.40;99.90;;;;;;5425783;26;20451;-85
2024/04/18 01:51:12;;;;;;;22.55;7.65;;;6.40;99.90;;;;;;5425879;26;20852;-85
2024/04/18 01:53:37;;;;;;;23.65;8.30;;;6.40;99.90;;;;;;5425227;26;20213;-85
2024/04/18 01:56:03;;;;;;;22.80;8.57;;;6.40;99.90;;;;;;5457528;26;20252;-85
2024/04/18 01:58:29;;;;;;;27.93;9.30;;;6.40;99.90;;;;;;5425584;26;20208;-85
2024/04/18 02:00:54;;;;;;;22.17;8.23;;;6.50;99.90;;;;;;5457268;26;20459;-85
2024/04/18 02:03:23;;;;;;;24.93;8.13;;;6.50;99.90;;;;;;5425552;26;20211;-85
2024/04/18 02:05:49;;;;;;;23.42;8.07;;;6.40;99.90;;;;;;5457282;26;20210;-85
2024/04/18 02:08:15;;;;;;;27.40;9.60;;;6.40;99.90;;;;;;5457141;26;20256;-85
2024/04/18 02:10:42;;;;;;;25.83;8.80;;;6.50;99.90;;;;;;5460050;26;20233;-85
2024/04/18 02:13:08;;;;;;;24.45;8.60;;;6.50;99.90;;;;;;5460398;26;20205;-85
2024/04/18 02:15:34;;;;;;;24.10;8.90;;;6.50;99.90;;;;;;5428860;26;20268;-84
2024/04/18 02:18:00;;;;;;;30.50;9.35;;;6.50;99.90;;;;;;5428774;26;20280;-85
2024/04/18 02:20:26;;;;;;;23.30;7.77;;;6.40;99.90;;;;;;5428405;26;20284;-85
2024/04/18 02:22:51;;;;;;;26.50;9.37;;;6.40;99.90;;;;;;5428356;26;20313;-84
2024/04/18 02:25:17;;;;;;;26.43;10.00;;;6.40;99.90;;;;;;5428133;26;20213;-85
2024/04/18 02:27:43;;;;;;;25.97;8.73;;;6.40;99.90;;;;;;5428211;26;20217;-85
2024/04/18 02:30:10;;;;;;;26.60;9.57;;;6.40;99.90;;;;;;5460305;26;20568;-85
2024/04/18 02:32:37;;;;;;;25.52;9.70;;;6.40;99.90;;;;;;5459628;26;20439;-84
2024/04/18 02:35:03;;;;;;;28.63;9.23;;;6.30;99.90;;;;;;5460063;26;20753;-85
2024/04/18 02:37:29;;;;;;;25.05;9.88;;;6.20;99.90;;;;;;5459928;26;20209;-85
2024/04/18 02:39:55;;;;;;;27.60;9.67;;;6.20;99.90;;;;;;5428419;26;20324;-85
2024/04/18 02:42:20;;;;;;;24.50;8.53;;;6.20;99.90;;;;;;5460278;26;20214;-84
2024/04/18 02:44:46;;;;;;;25.43;9.77;;;6.30;99.90;;;;;;5459873;26;20947;-85
2024/04/18 02:47:12;;;;;;;27.10;8.63;;;6.20;99.90;;;;;;5459484;26;20446;-85
2024/04/18 02:49:38;;;;;;;31.80;11.20;;;6.20;99.90;;;;;;5459785;26;20205;-85
2024/04/18 02:52:04;;;;;;;27.80;10.97;;;6.20;99.90;;;;;;5427985;26;20228;-85
2024/04/18 02:54:30;;;;;;;28.00;10.07;;;6.20;99.90;;;;;;5459412;26;20494;-85
2024/04/18 02:56:56;;;;;;;28.75;11.07;;;6.10;99.90;;;;;;5428247;26;20499;-85
2024/04/18 02:59:24;;;;;;;31.60;12.67;;;6.10;99.90;;;;;;5459658;26;20698;-86
2024/04/18 03:01:51;;;;;;;30.65;11.15;;;6.00;99.90;;;;;;5459493;26;20462;-86
2024/04/18 03:04:17;;;;;;;29.35;10.65;;;6.00;99.90;;;;;;5459220;26;20256;-86
2024/04/18 03:06:46;;;;;;;32.88;12.35;;;6.00;99.90;;;;;;5459312;26;20245;-87
2024/04/18 03:09:13;;;;;;;30.98;12.55;;;5.90;99.90;;;;;;5427325;26;20221;-86
2024/04/18 03:11:39;;;;;;;33.83;11.43;;;6.00;99.90;;;;;;5458850;26;20260;-86
2024/04/18 03:14:05;;;;;;;32.10;12.27;;;6.00;99.90;;;;;;5459201;26;20209;-86
2024/04/18 03:16:31;;;;;;;29.20;12.77;;;6.00;99.90;;;;;;5458961;26;20240;-86
2024/04/18 03:18:58;;;;;;;33.47;10.40;;;6.10;99.90;;;;;;5459023;26;20209;-86
2024/04/18 03:21:24;;;;;;;27.30;11.10;;;6.00;99.90;;;;;;5425245;26;20229;-87
2024/04/18 03:23:50;;;;;;;30.07;12.60;;;6.00;99.90;;;;;;5427023;26;20226;-87
2024/04/18 03:26:15;;;;;;;28.17;10.97;;;6.00;99.90;;;;;;5458474;26;20730;-87
2024/04/18 03:28:42;;;;;;;28.67;11.27;;;6.00;99.90;;;;;;5458679;26;20206;-86
2024/04/18 03:31:08;;;;;;;28.42;11.43;;;5.90;99.90;;;;;;5426657;26;20225;-86
2024/04/18 03:33:33;;;;;;;33.93;12.70;;;5.90;99.90;;;;;;5459339;26;20686;-86
2024/04/18 03:36:05;;;;;;;28.53;11.70;;;5.90;99.90;;;;;;5458478;26;20513;-86
2024/04/18 03:38:30;;;;;;;34.75;10.65;;;5.90;99.90;;;;;;5427341;26;20290;-86
2024/04/18 03:40:57;;;;;;;29.33;11.13;;;5.90;99.90;;;;;;5427003;26;20230;-86
2024/04/18 03:43:23;;;;;;;29.58;10.82;;;6.00;99.90;;;;;;5427139;26;20214;-86
2024/04/18 03:46:15;;;;;;;28.60;10.15;;;5.90;99.90;;;;;;5459184;26;20690;-86
2024/04/18 03:48:41;;;;;;;30.63;11.98;;;5.90;99.90;;;;;;5420597;26;20209;-86
2024/04/18 03:51:07;;;;;;;29.77;12.07;;;5.90;99.90;;;;;;5426541;26;20274;-86
2024/04/18 03:53:32;;;;;;;28.37;11.50;;;6.00;99.90;;;;;;5458259;26;20205;-86
2024/04/18 03:55:58;;;;;;;28.87;11.47;;;6.00;99.90;;;;;;5426765;26;20589;-86
2024/04/18 03:58:23;;;;;;;25.67;11.20;;;6.00;99.90;;;;;;5458495;26;20722;-86
2024/04/18 04:00:49;;;;;;;30.60;10.57;;;6.00;99.90;;;;;;5427077;26;20738;-86
2024/04/18 04:03:15;;;;;;;31.10;12.77;;;5.90;99.90;;;;;;5458558;26;20291;-86
2024/04/18 04:05:41;;;;;;;27.33;10.55;;;5.90;99.90;;;;;;5458626;26;20205;-86
2024/04/18 04:08:07;;;;;;;30.93;11.53;;;6.00;99.90;;;;;;5458289;26;20205;-86
2024/04/18 04:10:32;;;;;;;31.63;12.83;;;5.90;99.90;;;;;;5457917;26;20221;-86
2024/04/18 04:12:58;;;;;;;28.53;11.60;;;6.00;99.90;;;;;;5458587;26;20248;-86
2024/04/18 04:15:23;;;;;;;30.37;10.90;;;5.90;99.90;;;;;;5458222;26;20206;-86
2024/04/18 04:17:49;;;;;;;27.30;11.47;;;5.90;99.90;;;;;;5426236;26;20240;-86
2024/04/18 04:20:15;;;;;;;32.07;11.50;;;5.90;99.90;;;;;;5426110;26;20225;-86
2024/04/18 04:22:40;;;;;;;31.67;10.97;;;6.00;99.90;;;;;;5458315;26;20209;-86
2024/04/18 04:25:06;;;;;;;31.63;11.93;;;5.90;99.90;;;;;;5532459;21;20249;-83
2024/04/18 04:27:32;;;;;;;29.93;10.90;;;6.00;99.90;;;;;;5425642;26;20274;-83
2024/04/18 04:29:58;;;;;;;29.03;10.70;;;5.90;99.90;;;;;;5458020;26;20706;-83
2024/04/18 04:32:23;;;;;;;29.35;11.43;;;6.00;99.90;;;;;;5456615;26;20208;-83
2024/04/18 04:34:51;;;;;;;28.53;12.20;;;6.00;99.90;;;;;;5457132;26;20778;-83
2024/04/18 04:37:18;;;;;;;28.20;10.90;;;6.00;99.90;;;;;;5456732;26;20267;-83
2024/04/18 04:39:47;;;;;;;27.92;10.70;;;6.00;99.90;;;;;;5425427;26;20217;-83
2024/04/18 04:42:13;;;;;;;37.25;11.80;;;6.00;99.90;;;;;;5456930;26;20272;-82
2024/04/18 04:44:38;;;;;;;32.93;12.67;;;6.00;99.90;;;;;;5457235;26;20210;-83
2024/04/18 04:47:04;;;;;;;28.07;10.47;;;6.00;99.90;;;;;;5425300;26;20549;-83
2024/04/18 04:49:30;;;;;;;30.30;11.13;;;6.00;99.90;;;;;;5456945;26;20698;-83
2024/04/18 04:51:56;;;;;;;26.00;10.23;;;6.00;99.90;;;;;;5456519;26;20846;-83
2024/04/18 04:54:21;;;;;;;24.90;11.03;;;5.90;99.90;;;;;;5425001;26;20306;-83
2024/04/18 04:56:47;;;;;;;24.57;9.00;;;5.90;99.90;;;;;;5456761;26;20598;-83
2024/04/18 04:59:12;;;;;;;25.10;9.80;;;5.90;99.90;;;;;;5456740;26;20251;-82
2024/04/18 05:01:38;;;;;;;27.97;9.53;;;5.90;99.90;;;;;;5456739;26;20264;-83
2024/04/18 05:04:04;;;;;;;25.00;9.57;;;6.00;99.90;;;;;;5457119;26;20259;-82
2024/04/18 05:06:29;;;;;;;24.90;9.30;;;6.00;99.90;;;;;;5425158;26;20543;-83
2024/04/18 05:08:55;;;;;;;23.37;8.90;;;6.10;99.90;;;;;;5425100;26;20229;-83
2024/04/18 05:11:21;;;;;;;26.23;8.97;;;6.00;99.90;;;;;;5457522;26;20220;-82
2024/04/18 05:13:46;;;;;;;25.87;9.10;;;6.10;99.90;;;;;;5425004;26;20302;-83
2024/04/18 05:16:12;;;;;;;26.23;7.90;;;6.10;99.90;;;;;;5424968;26;20222;-82
2024/04/18 05:18:38;;;;;;;25.87;8.90;;;6.10;99.90;;;;;;5456867;26;20221;-83
2024/04/18 05:21:05;;;;;;;27.02;9.70;;;6.00;99.90;;;;;;5456628;26;20306;-83
2024/04/18 05:23:30;;;;;;;25.85;9.43;;;6.00;99.90;;;;;;5456676;26;20218;-83
2024/04/18 05:25:56;;;;;;;23.60;8.83;;;6.00;99.90;;;;;;5457285;26;20209;-83
2024/04/18 05:28:30;;;;;;;27.93;8.63;;;6.10;99.90;;;;;;5457444;26;20205;-83
2024/04/18 05:31:01;;;;;;;28.88;10.23;;;6.00;99.90;;;;;;5425451;26;20601;-83
2024/04/18 05:33:28;;;;;;;22.52;7.75;;;6.00;99.90;;;;;;5425362;26;20205;-83
2024/04/18 05:35:53;;;;;;;27.73;9.20;;;6.00;99.90;;;;;;5456460;26;20744;-83
2024/04/18 05:38:22;;;;;;;23.90;7.93;;;6.00;99.90;;;;;;5457020;26;20209;-83
2024/04/18 05:40:51;;;;;;;24.02;8.38;;;6.10;99.90;;;;;;5456547;26;20613;-82
2024/04/18 05:43:17;;;;;;;25.25;9.05;;;6.10;99.90;;;;;;5456219;26;20686;-83
2024/04/18 05:45:44;;;;;;;25.97;9.00;;;6.20;99.90;;;;;;5456152;26;20255;-82
2024/04/18 05:48:10;;;;;;;24.08;7.75;;;6.20;99.90;;;;;;5457492;26;20801;-82
2024/04/18 05:50:36;;;;;;;31.53;8.57;;;6.30;99.90;;;;;;5457322;26;20244;-82
2024/04/18 05:53:01;;;;;;;22.23;7.90;;;6.20;99.90;;;;;;5457464;26;20244;-82
2024/04/18 05:55:27;;;;;;;24.83;8.27;;;6.20;99.90;;;;;;5457399;26;20563;-82
2024/04/18 05:57:52;;;;;;;30.43;8.97;;;6.30;99.90;;;;;;5457220;26;20178;-82
2024/04/18 06:00:18;;;;;;;28.10;8.33;;;6.30;99.90;;;;;;5425549;26;20252;-82
2024/04/18 06:02:44;;;;;;;22.00;7.43;;;6.40;99.90;;;;;;5457038;26;20205;-82
2024/04/18 06:05:09;;;;;;;20.70;6.90;;;6.50;99.90;;;;;;5425302;26;20217;-82
2024/04/18 06:07:35;;;;;;;23.57;8.40;;;6.50;99.90;;;;;;5457174;26;20253;-83
2024/04/18 06:10:00;;;;;;;21.60;7.80;;;6.50;99.90;;;;;;5456906;26;20218;-83
2024/04/18 06:12:26;;;;;;;21.30;8.07;;;6.50;99.90;;;;;;5457017;26;20670;-82
2024/04/18 06:14:52;;;;;;;22.93;8.30;;;6.50;99.90;;;;;;5457678;26;20233;-83
2024/04/18 06:17:17;;;;;;;22.30;7.77;;;6.50;99.90;;;;;;5456843;26;20208;-82
2024/04/18 06:19:48;;;;;;;26.50;7.87;;;6.50;99.90;;;;;;5456773;26;20216;-83
2024/04/18 06:22:13;;;;;;;25.58;9.73;;;6.60;99.90;;;;;;5455295;26;20432;-82
2024/04/18 06:24:41;;;;;;;22.00;8.43;;;6.70;99.90;;;;;;5456147;26;20621;-82
2024/04/18 06:27:07;;;;;;;23.52;9.10;;;6.70;99.90;;;;;;5456166;26;20249;-82
2024/04/18 06:29:32;;;;;;;22.23;8.68;;;6.60;99.90;;;;;;5456079;26;20170;-82
2024/04/18 06:31:58;;;;;;;25.20;9.60;;;6.60;99.90;;;;;;5456383;26;20259;-82
2024/04/18 06:34:24;;;;;;;29.00;9.87;;;6.60;99.90;;;;;;5456249;26;20252;-81
2024/04/18 06:36:49;;;;;;;28.77;11.77;;;6.60;99.90;;;;;;5424428;26;20214;-81
2024/04/18 06:39:15;;;;;;;26.43;8.47;;;6.60;99.90;;;;;;5456280;26;20162;-82
2024/04/18 06:41:41;;;;;;;26.70;9.60;;;6.50;99.90;;;;;;5456112;26;20218;-82
2024/04/18 06:44:07;;;;;;;25.60;9.70;;;6.60;99.90;;;;;;5423948;26;20213;-81
2024/04/18 06:46:33;;;;;;;24.70;10.13;;;6.60;99.90;;;;;;5454119;26;20257;-81
2024/04/18 06:48:59;;;;;;;22.55;9.60;;;6.80;99.90;;;;;;5454009;26;20445;-81
2024/04/18 06:51:25;;;;;;;31.43;9.10;;;6.90;99.90;;;;;;5454040;26;20331;-80
2024/04/18 06:53:51;;;;;;;21.92;7.55;;;7.00;99.90;;;;;;5453666;26;20213;-81
2024/04/18 06:56:17;;;;;;;21.83;8.70;;;7.10;99.90;;;;;;5456365;26;20242;-81
2024/04/18 06:58:42;;;;;;;22.87;8.30;;;7.30;99.90;;;;;;5457937;26;20205;-80
2024/04/18 07:01:08;;;;;;;25.67;9.13;;;7.20;99.90;;;;;;5458176;26;20235;-80
2024/04/18 07:03:34;;;;;;;24.87;9.20;;;7.30;99.90;;;;;;5457272;26;20231;-81
2024/04/18 07:05:59;;;;;;;22.93;7.70;;;7.30;99.90;;;;;;5457968;26;20270;-82
2024/04/18 07:08:25;;;;;;;26.00;8.90;;;7.20;99.90;;;;;;5457590;26;20256;-82
2024/04/18 07:10:51;;;;;;;25.63;9.27;;;7.10;99.90;;;;;;5457434;26;20240;-82
2024/04/18 07:13:17;;;;;;;22.23;7.70;;;7.10;99.90;;;;;;5457122;26;20194;-81
2024/04/18 07:15:43;;;;;;;20.20;7.53;;;7.10;99.90;;;;;;5457236;26;20214;-81
2024/04/18 07:18:09;;;;;;;24.20;8.70;;;7.10;99.90;;;;;;5457074;26;20459;-81
2024/04/18 07:20:34;;;;;;;20.57;7.17;;;7.00;99.90;;;;;;5425391;26;20249;-81
2024/04/18 07:23:00;;;;;;;29.80;7.47;;;7.00;99.90;;;;;;5425327;26;20694;-81
2024/04/18 07:25:25;;;;;;;27.07;7.27;;;7.10;99.90;;;;;;5457270;26;20213;-81
2024/04/18 07:27:51;;;;;;;23.67;7.73;;;7.20;99.90;;;;;;5457386;26;20582;-82
2024/04/18 07:30:17;;;;;;;22.80;6.90;;;7.30;99.90;;;;;;5457489;26;20218;-82
2024/04/18 07:32:42;;;;;;;21.03;7.40;;;7.20;99.90;;;;;;5457756;26;20209;-81
2024/04/18 07:35:08;;;;;;;23.27;7.70;;;7.20;99.90;;;;;;5457457;26;20253;-81
2024/04/18 07:37:34;;;;;;;21.67;6.77;;;7.30;99.90;;;;;;5457013;26;20598;-81
2024/04/18 07:40:11;;;;;;;20.80;6.23;;;7.30;99.90;;;;;;5425161;26;20251;-81
2024/04/18 07:42:36;;;;;;;21.08;6.15;;;7.50;99.90;;;;;;5457112;26;20209;-80
2024/04/18 07:45:02;;;;;;;22.20;6.30;;;7.70;99.90;;;;;;5456714;26;20206;-81
2024/04/18 07:47:28;;;;;;;27.20;6.70;;;7.70;99.90;;;;;;5456954;26;20209;-81
2024/04/18 07:49:54;;;;;;;19.37;5.90;;;7.80;99.90;;;;;;5425124;26;20225;-81
2024/04/18 07:52:19;;;;;;;19.40;7.00;;;7.90;99.90;;;;;;5456378;26;20205;-81
2024/04/18 07:54:45;;;;;;;19.30;6.53;;;8.10;99.90;;;;;;5456596;26;20244;-80
2024/04/18 07:57:11;;;;;;;20.20;6.25;;;8.20;99.90;;;;;;5425163;26;20262;-81
2024/04/18 07:59:37;;;;;;;20.88;6.20;;;8.30;99.90;;;;;;5424319;26;20217;-81
2024/04/18 08:02:03;;;;;;;20.50;4.80;;;8.40;99.90;;;;;;5456624;26;20205;-81
2024/04/18 08:04:29;;;;;;;19.42;5.60;;;8.30;99.90;;;;;;5457384;26;20305;-82
2024/04/18 08:06:55;;;;;;;20.80;5.83;;;8.20;99.90;;;;;;5426317;26;20217;-84
2024/04/18 08:09:21;;;;;;;20.17;5.60;;;8.30;99.90;;;;;;5458332;26;20240;-82
2024/04/18 08:11:47;;;;;;;19.48;5.85;;;8.50;99.90;;;;;;5457788;26;20552;-83
2024/04/18 08:14:13;;;;;;;17.00;4.20;;;8.60;99.90;;;;;;5457838;26;20235;-82
2024/04/18 08:16:38;;;;;;;20.70;3.90;;;8.70;99.90;;;;;;5425924;26;20213;-82
2024/04/18 08:19:04;;;;;;;17.37;3.27;;;8.70;99.90;;;;;;5458226;26;20702;-82
2024/04/18 08:21:30;;;;;;;17.30;3.37;;;8.80;99.90;;;;;;5457657;26;20217;-82
2024/04/18 08:23:57;;;;;;;15.37;3.23;;;8.90;99.90;;;;;;5457815;26;20590;-82
2024/04/18 08:26:23;;;;;;;14.18;2.83;;;9.00;99.90;;;;;;5457982;26;20261;-82
2024/04/18 08:28:48;;;;;;;17.13;3.17;;;9.00;99.90;;;;;;5426074;26;20305;-82
2024/04/18 08:31:14;;;;;;;15.93;3.57;;;9.10;99.90;;;;;;5457563;26;20571;-83
2024/04/18 08:33:40;;;;;;;16.97;2.73;;;9.20;99.90;;;;;;5457202;26;20250;-82
2024/04/18 08:36:06;;;;;;;14.43;2.80;;;9.20;99.90;;;;;;5457393;26;20586;-82
2024/04/18 08:38:32;;;;;;;18.20;3.77;;;9.20;99.90;;;;;;5457455;26;20213;-81
2024/04/18 08:41:03;;;;;;;15.40;3.17;;;9.20;99.90;;;;;;5457198;26;20455;-82
2024/04/18 08:43:29;;;;;;;17.50;2.90;;;9.30;99.90;;;;;;5457074;26;20415;-82
2024/04/18 08:45:56;;;;;;;22.17;3.28;;;9.30;96.90;;;;;;5457246;26;20255;-82
2024/04/18 08:48:26;;;;;;;16.55;2.90;;;9.10;98.10;;;;;;5457429;26;20611;-83
2024/04/18 08:50:52;;;;;;;15.38;2.45;;;9.00;98.10;;;;;;5456737;26;20573;-82
2024/04/18 08:53:18;;;;;;;14.00;2.47;;;9.00;99.50;;;;;;5456746;26;20248;-82
2024/04/18 08:55:50;;;;;;;14.10;2.57;;;9.00;99.80;;;;;;5456978;26;20205;-82
2024/04/18 08:58:16;;;;;;;16.80;2.40;;;9.20;99.90;;;;;;5425194;26;20216;-82
2024/04/18 09:00:46;;;;;;;15.27;2.30;;;9.20;98.30;;;;;;5456915;26;20798;-82
2024/04/18 09:03:11;;;;;;;16.52;3.17;;;9.10;96.80;;;;;;5456843;26;20301;-81
2024/04/18 09:05:37;;;;;;;19.70;2.40;;;9.20;98.30;;;;;;5457132;26;20216;-82
2024/04/18 09:08:04;;;;;;;14.00;1.80;;;9.20;76.70;;;;;;5456229;26;20221;-83
2024/04/18 09:10:30;;;;;;;13.60;1.90;;;9.20;17.30;;;;;;5456068;26;20285;-82
2024/04/18 09:12:55;;;;;;;14.13;1.87;;;9.20;1.00;;;;;;5456113;26;20205;-83
2024/04/18 09:15:25;;;;;;;15.27;2.10;;;9.20;1.00;;;;;;5455900;26;20493;-81
2024/04/18 09:18:07;;;;;;;15.85;1.95;;;9.20;1.00;;;;;;5455613;26;20474;-82
2024/04/18 09:20:35;;;;;;;14.00;1.92;;;9.30;1.00;;;;;;5454717;26;20804;-83
2024/04/18 09:23:01;;;;;;;14.88;2.13;;;9.40;1.00;;;;;;5455985;26;20582;-82
2024/04/18 09:25:27;;;;;;;13.73;1.80;;;9.60;1.00;;;;;;5423596;26;20225;-81
2024/04/18 09:27:53;;;;;;;15.43;1.70;;;9.80;1.00;;;;;;5454780;26;20313;-81
2024/04/18 09:30:18;;;;;;;14.60;2.00;;;10.00;1.00;;;;;;5454679;26;20450;-81
2024/04/18 09:32:47;;;;;;;15.17;1.90;;;10.40;1.00;;;;;;5454494;26;20204;-81
2024/04/18 09:35:16;;;;;;;14.30;1.90;;;10.70;1.00;;;;;;5454681;26;20243;-81
2024/04/18 09:37:42;;;;;;;15.55;1.98;;;11.00;1.00;;;;;;5454371;26;20535;-81
2024/04/18 09:40:11;;;;;;;15.65;2.40;;;11.10;1.00;;;;;;5422613;26;20241;-81
2024/04/18 09:42:42;;;;;;;18.05;2.30;;;10.90;1.00;;;;;;5422637;26;20245;-81
2024/04/18 09:45:12;;;;;;;16.90;2.00;;;10.90;1.00;;;;;;5422326;26;20325;-80
2024/04/18 09:47:39;;;;;;;16.90;2.20;;;10.50;1.00;;;;;;5422826;26;20221;-82
2024/04/18 09:50:05;;;;;;;13.88;1.83;;;10.40;1.00;;;;;;5454197;26;20259;-81
2024/04/18 09:52:33;;;;;;;13.95;1.90;;;10.60;1.00;;;;;;5453978;26;20248;-80
2024/04/18 09:55:00;;;;;;;14.32;1.83;;;10.50;1.00;;;;;;5422605;26;20570;-81
2024/04/18 09:57:28;;;;;;;21.23;1.80;;;10.50;1.00;;;;;;5422826;26;20213;-81
2024/04/18 09:59:54;;;;;;;14.55;1.67;;;10.60;1.00;;;;;;5454506;26;20229;-81
2024/04/18 10:02:23;;;;;;;15.10;1.90;;;10.70;1.00;;;;;;5454575;26;20313;-82
2024/04/18 10:04:49;;;;;;;15.15;2.50;;;11.00;1.00;;;;;;5454019;26;20487;-81
2024/04/18 10:07:17;;;;;;;14.00;1.92;;;11.30;1.00;;;;;;5422470;26;20228;-81
2024/04/18 10:09:47;;;;;;;17.30;2.13;;;11.50;1.00;;;;;;5454000;26;20555;-81
2024/04/18 10:12:13;;;;;;;16.10;1.52;;;11.50;1.00;;;;;;5453511;26;20674;-80
2024/04/18 10:14:39;;;;;;;13.10;1.80;;;11.30;1.00;;;;;;5422135;26;20256;-81
2024/04/18 10:17:07;;;;;;;15.13;1.60;;;11.20;1.00;;;;;;5453884;26;20511;-81
2024/04/18 10:19:32;;;;;;;22.88;2.03;;;11.30;1.00;;;;;;5454145;26;20221;-80
2024/04/18 10:21:59;;;;;;;14.87;1.90;;;11.10;1.00;;;;;;5453923;26;20602;-81
2024/04/18 10:24:35;;;;;;;16.77;2.40;;;11.00;1.00;;;;;;5496194;21;20253;-85
2024/04/18 10:27:08;;;;;;;14.68;1.52;;;10.80;1.00;;;;;;5457157;26;20316;-84
2024/04/18 10:29:34;;;;;;;18.02;1.73;;;10.70;1.00;;;;;;5425535;26;20182;-85
2024/04/18 10:32:03;;;;;;;14.82;1.80;;;10.70;1.00;;;;;;5425158;26;20198;-85
2024/04/18 10:34:30;;;;;;;14.35;1.95;;;10.60;1.00;;;;;;5393168;26;20215;-85
2024/04/18 10:36:57;;;;;;;18.80;2.50;;;10.60;1.00;;;;;;5392934;26;20590;-84
2024/04/18 10:39:30;;;;;;;15.68;3.10;;;10.80;1.00;;;;;;5424773;26;20240;-84
2024/04/18 10:42:08;;;;;;;16.70;3.80;;;11.30;1.00;;;;;;5425145;26;20226;-85
2024/04/18 10:44:34;;;;;;;16.33;3.40;;;11.50;1.00;;;;;;5424316;26;20201;-85
2024/04/18 10:47:01;;;;;;;16.60;3.17;;;11.50;1.00;;;;;;5424363;26;20210;-84
2024/04/18 10:49:27;;;;;;;14.90;2.60;;;11.40;1.00;;;;;;5424472;26;20210;-84
2024/04/18 10:51:56;;;;;;;15.20;2.57;;;11.20;1.00;;;;;;5424462;26;20249;-85
2024/04/18 10:54:22;;;;;;;14.77;3.17;;;11.20;1.00;;;;;;5424401;26;20478;-83
2024/04/18 10:56:49;;;;;;;14.87;2.83;;;11.20;1.00;;;;;;5424477;26;20554;-84
2024/04/18 10:59:15;;;;;;;14.60;2.42;;;11.20;1.00;;;;;;5424411;26;20248;-84
2024/04/18 11:01:42;;;;;;;19.73;2.93;;;11.00;1.00;;;;;;5424013;26;20571;-85
2024/04/18 11:04:09;;;;;;;14.90;2.85;;;11.00;1.00;;;;;;5422392;26;20218;-84
2024/04/18 11:06:41;;;;;;;20.98;3.10;;;11.10;1.00;;;;;;5424403;26;20256;-85
2024/04/18 11:09:08;;;;;;;14.32;2.72;;;11.40;1.00;;;;;;5427615;26;20257;-83
2024/04/18 11:11:38;;;;;;;16.73;2.67;;;12.00;1.00;;;;;;5433969;26;20218;-84
2024/04/18 11:14:04;;;;;;;14.80;2.97;;;12.60;1.00;;;;;;5432208;26;20211;-84
2024/04/18 11:16:30;;;;;;;15.68;2.65;;;13.20;1.00;;;;;;5432595;26;20206;-83
2024/04/18 11:18:56;;;;;;;21.93;2.57;;;13.90;1.00;;;;;;5430553;26;20745;-83
2024/04/18 11:21:24;;;;;;;18.00;2.33;;;14.30;99.90;;;;;;5429407;26;20230;-82
2024/04/18 11:23:59;;;;;;;21.88;2.05;;;13.90;99.90;;;;;;5434279;26;20296;-84
2024/04/18 11:26:27;;;;;;;14.17;3.47;;;13.20;99.90;;;;;;5429625;26;20189;-84
2024/04/18 11:28:56;;;;;;;15.77;2.77;;;12.80;99.90;;;;;;5429991;26;20432;-84
2024/04/18 11:31:22;;;;;;;14.23;1.95;;;12.90;99.90;;;;;;5430216;26;20460;-84
2024/04/18 11:33:54;;;;;;;13.53;1.53;;;13.10;99.90;;;;;;5425772;26;20210;-85
2024/04/18 11:36:20;;;;;;;13.73;1.60;;;13.10;99.90;;;;;;5424719;26;20392;-86
2024/04/18 11:38:47;;;;;;;13.07;1.33;;;13.10;99.90;;;;;;5392992;26;20499;-84
2024/04/18 11:41:12;;;;;;;13.00;1.47;;;12.90;99.90;;;;;;5392304;26;20222;-85
2024/04/18 11:43:38;;;;;;;13.40;1.70;;;12.70;99.90;;;;;;5392354;26;20500;-85
2024/04/18 11:46:04;;;;;;;13.73;1.60;;;12.40;99.90;;;;;;5424294;26;20210;-85
2024/04/18 11:48:29;;;;;;;13.43;1.83;;;12.20;99.90;;;;;;5392428;26;20249;-86
2024/04/18 11:50:55;;;;;;;12.80;1.33;;;12.10;99.90;;;;;;5392252;26;20304;-85
2024/04/18 11:53:20;;;;;;;13.20;1.33;;;12.40;99.90;;;;;;5424125;26;20739;-85
2024/04/18 11:55:46;;;;;;;13.60;1.50;;;13.00;99.90;;;;;;5391674;26;20225;-86
2024/04/18 11:58:12;;;;;;;12.93;1.50;;;13.30;99.90;;;;;;5424421;26;20273;-85
2024/04/18 12:00:37;;;;;;;14.10;1.00;;;13.50;99.90;;;;;;5422933;26;20219;-85
2024/04/18 12:03:03;;;;;;;13.23;0.97;;;13.70;99.90;;;;;;5392583;26;20244;-86
2024/04/18 12:05:29;;;;;;;12.30;1.20;;;13.60;99.90;;;;;;5391737;26;20280;-84
2024/04/18 12:07:55;;;;;;;13.60;1.60;;;13.80;99.90;;;;;;5423619;26;20445;-87
2024/04/18 12:10:20;;;;;;;13.10;0.83;;;14.10;99.90;;;;;;5423277;26;20256;-85
2024/04/18 12:12:46;;;;;;;12.90;1.03;;;14.40;99.90;;;;;;5391311;26;20218;-86
2024/04/18 12:15:12;;;;;;;11.87;0.97;;;14.90;99.90;;;;;;5421697;26;20210;-85
2024/04/18 12:17:37;;;;;;;11.80;1.00;;;15.10;99.90;;;;;;5392725;26;20226;-85
2024/04/18 12:20:04;;;;;;;12.03;0.93;;;15.00;99.90;;;;;;5392524;26;20222;-86
2024/04/18 12:22:30;;;;;;;12.67;1.00;;;15.00;99.90;;;;;;5424077;26;20237;-86
2024/04/18 12:24:55;;;;;;;13.43;1.17;;;14.90;99.90;;;;;;5423630;26;20519;-86
2024/04/18 12:27:22;;;;;;;12.00;0.80;;;14.50;99.90;;;;;;5392192;26;20444;-86
2024/04/18 12:29:48;;;;;;;12.27;0.93;;;14.10;99.90;;;;;;5391952;26;20280;-85
2024/04/18 12:32:19;;;;;;;12.37;1.00;;;13.70;99.90;;;;;;5421581;26;20444;-86
2024/04/18 12:34:45;;;;;;;12.60;1.50;;;13.40;99.90;;;;;;5423126;26;20448;-86
2024/04/18 12:37:11;;;;;;;12.20;1.00;;;13.60;99.90;;;;;;5424555;26;20870;-85
2024/04/18 12:39:37;;;;;;;12.40;1.00;;;13.90;99.90;;;;;;5423248;26;20432;-84